Terminal Aerodrome Forecast
Issued by NWS

Current Version | Previous Version | Text Only | Print | Product List | Glossary Off
Versions: 1 2 3 4 5 6 7 8 9 10 11 12 13 14

178
FTUS41 KPBZ 171139
TAFMGW
TAF
KMGW 171139Z 1712/1812 VRB03KT P6SM BKN050
     FM172100 07007KT P6SM VCSH OVC040=

USA.gov is the U.S. government's official web portal to all federal, state and local government web resources and services.